Time;durP1;ratioP1;P1;durP2;ratioP2;P2;SDS_P1;SDS_P2;PMS_P1;PMS_P2;Temp;Humidity;BMP_temperature;BMP_pressure;BME280_temperature;BME280_humidity;BME280_pressure;Samples;Min_cycle;Max_cycle;Signal;HPM_P1;HPM_P2
2023/07/28 00:00:11;;;;;;;3.50;2.37;;;;;;;;;;5009833;28;20474;-53
2023/07/28 00:02:38;;;;;;;4.30;1.57;;;;;;;;;;5010518;28;20443;-52
2023/07/28 00:05:05;;;;;;;3.93;1.90;;;;;;;;;;5013867;28;21074;-52
2023/07/28 00:07:36;;;;;;;4.37;2.20;;;;;;;;;;5011749;28;20517;-53
2023/07/28 00:10:03;;;;;;;3.50;2.00;;;;;;;;;;5011989;28;20450;-53
2023/07/28 00:12:30;;;;;;;3.43;2.23;;;;;;;;;;5013482;28;21002;-53
2023/07/28 00:14:59;;;;;;;3.37;2.10;;;;;;;;;;5013044;28;20514;-54
2023/07/28 00:17:27;;;;;;;3.53;1.70;;;;;;;;;;5012649;28;20450;-53
2023/07/28 00:19:54;;;;;;;3.50;1.90;;;;;;;;;;5012080;28;20521;-54
2023/07/28 00:22:21;;;;;;;3.80;1.73;;;;;;;;;;5013083;28;20451;-53
2023/07/28 00:24:50;;;;;;;4.33;2.33;;;;;;;;;;5012456;28;20455;-53
2023/07/28 00:27:18;;;;;;;4.13;2.40;;;;;;;;;;5012677;28;20513;-54
2023/07/28 00:29:45;;;;;;;2.73;1.87;;;;;;;;;;5012454;28;20810;-53
2023/07/28 00:32:12;;;;;;;5.43;2.03;;;;;;;;;;5012023;28;20534;-53
2023/07/28 00:34:39;;;;;;;5.77;2.70;;;;;;;;;;5011729;28;20791;-52
2023/07/28 00:37:07;;;;;;;3.50;2.20;;;;;;;;;;5011954;28;20520;-52
2023/07/28 00:39:34;;;;;;;3.40;1.93;;;;;;;;;;5011957;28;20538;-54
2023/07/28 00:42:03;;;;;;;3.83;1.70;;;;;;;;;;5012581;28;20479;-52
2023/07/28 00:44:30;;;;;;;3.57;2.20;;;;;;;;;;5010856;28;20478;-53
2023/07/28 00:46:57;;;;;;;2.73;1.93;;;;;;;;;;5011415;28;20541;-52
2023/07/28 00:49:25;;;;;;;2.43;1.50;;;;;;;;;;5011081;28;20501;-54
2023/07/28 00:51:52;;;;;;;3.90;1.93;;;;;;;;;;5010329;28;20863;-52
2023/07/28 00:54:20;;;;;;;3.10;2.07;;;;;;;;;;5011286;28;20987;-53
2023/07/28 00:56:49;;;;;;;2.87;2.03;;;;;;;;;;5011243;28;20530;-52
2023/07/28 00:59:18;;;;;;;3.30;2.30;;;;;;;;;;5012617;28;20538;-52
2023/07/28 01:01:45;;;;;;;4.90;2.00;;;;;;;;;;5013078;28;20502;-52
2023/07/28 01:04:12;;;;;;;3.30;1.80;;;;;;;;;;5012865;28;20558;-51
2023/07/28 01:06:46;;;;;;;3.00;1.67;;;;;;;;;;5012431;28;20959;-53
2023/07/28 01:09:14;;;;;;;3.60;2.13;;;;;;;;;;5012701;28;20478;-54
2023/07/28 01:11:54;;;;;;;2.90;1.80;;;;;;;;;;5012880;28;20535;-53
2023/07/28 01:14:22;;;;;;;2.80;1.80;;;;;;;;;;5012331;28;20560;-52
2023/07/28 01:16:50;;;;;;;3.13;1.83;;;;;;;;;;5012134;28;20443;-52
2023/07/28 01:19:18;;;;;;;4.30;2.00;;;;;;;;;;5012546;28;20515;-53
2023/07/28 01:21:47;;;;;;;3.33;1.90;;;;;;;;;;5012965;28;20922;-52
2023/07/28 01:24:17;;;;;;;2.77;1.73;;;;;;;;;;5012460;28;20487;-54
2023/07/28 01:26:46;;;;;;;3.43;1.67;;;;;;;;;;5012838;28;20518;-53
2023/07/28 01:29:14;;;;;;;3.30;2.10;;;;;;;;;;5011666;28;20487;-53
2023/07/28 01:31:42;;;;;;;4.03;1.50;;;;;;;;;;5012338;28;20501;-53
2023/07/28 01:34:09;;;;;;;2.80;1.60;;;;;;;;;;5012721;28;20494;-52
2023/07/28 01:36:36;;;;;;;3.10;1.53;;;;;;;;;;5012514;28;20470;-54
2023/07/28 01:39:04;;;;;;;3.87;2.20;;;;;;;;;;5012317;28;20534;-52
2023/07/28 01:41:31;;;;;;;4.60;2.50;;;;;;;;;;5012444;28;20543;-53
2023/07/28 01:43:59;;;;;;;3.20;2.30;;;;;;;;;;5012175;28;20513;-53
2023/07/28 01:46:27;;;;;;;5.20;2.30;;;;;;;;;;5012286;28;20859;-53
2023/07/28 01:48:54;;;;;;;3.10;1.70;;;;;;;;;;5012151;28;20526;-53
2023/07/28 01:51:21;;;;;;;5.00;2.33;;;;;;;;;;5012032;28;20883;-53
2023/07/28 01:53:48;;;;;;;2.87;1.80;;;;;;;;;;5011866;28;20499;-53
2023/07/28 01:56:16;;;;;;;3.37;1.87;;;;;;;;;;5011709;28;20553;-54
2023/07/28 01:58:43;;;;;;;6.10;2.30;;;;;;;;;;5011833;28;20529;-53
2023/07/28 02:01:14;;;;;;;3.17;1.80;;;;;;;;;;5012201;28;20537;-54
2023/07/28 02:03:41;;;;;;;3.47;1.90;;;;;;;;;;5038487;23;20506;-84
2023/07/28 02:06:08;;;;;;;3.83;1.90;;;;;;;;;;5037490;28;20975;-83
2023/07/28 02:08:35;;;;;;;3.10;1.90;;;;;;;;;;5018758;28;20506;-84
2023/07/28 02:11:03;;;;;;;2.80;1.80;;;;;;;;;;5019437;28;20451;-84
2023/07/28 02:13:30;;;;;;;2.47;1.50;;;;;;;;;;5019923;28;21016;-84
2023/07/28 02:15:57;;;;;;;3.10;1.73;;;;;;;;;;5020166;28;20503;-84
2023/07/28 02:18:26;;;;;;;6.10;2.53;;;;;;;;;;5020020;28;20494;-84
2023/07/28 02:20:53;;;;;;;3.30;1.93;;;;;;;;;;5018518;28;20454;-84
2023/07/28 02:23:20;;;;;;;4.57;1.97;;;;;;;;;;5019931;28;20479;-84
2023/07/28 02:25:47;;;;;;;3.30;1.73;;;;;;;;;;5020963;28;20497;-84
2023/07/28 02:28:15;;;;;;;3.37;2.20;;;;;;;;;;5019058;28;20474;-84
2023/07/28 02:30:43;;;;;;;2.90;2.03;;;;;;;;;;5019451;28;20457;-84
2023/07/28 02:33:10;;;;;;;3.00;1.77;;;;;;;;;;5020758;28;20949;-84
2023/07/28 02:35:38;;;;;;;2.50;1.63;;;;;;;;;;5020644;28;20510;-84
2023/07/28 02:38:06;;;;;;;3.00;1.90;;;;;;;;;;5020095;28;20521;-84
2023/07/28 02:40:34;;;;;;;5.17;2.10;;;;;;;;;;5020456;28;20470;-84
2023/07/28 02:43:01;;;;;;;3.50;2.30;;;;;;;;;;5020863;28;20451;-83
2023/07/28 02:45:28;;;;;;;3.17;1.90;;;;;;;;;;5021468;28;20443;-84
2023/07/28 02:47:55;;;;;;;3.07;2.03;;;;;;;;;;5020244;28;20471;-84
2023/07/28 02:50:23;;;;;;;3.70;2.10;;;;;;;;;;5019534;28;20471;-84
2023/07/28 02:52:51;;;;;;;2.80;1.80;;;;;;;;;;5017571;28;20440;-84
2023/07/28 02:55:19;;;;;;;3.93;1.90;;;;;;;;;;5019998;28;20482;-84
2023/07/28 02:57:46;;;;;;;4.93;2.40;;;;;;;;;;5018310;28;20518;-84
2023/07/28 03:00:14;;;;;;;3.87;2.13;;;;;;;;;;5019710;28;20474;-84
2023/07/28 03:02:41;;;;;;;2.57;1.70;;;;;;;;;;5020334;28;20467;-84
2023/07/28 03:05:09;;;;;;;2.73;1.60;;;;;;;;;;5019218;28;20466;-84
2023/07/28 03:07:36;;;;;;;3.70;2.10;;;;;;;;;;5020295;28;20534;-84
2023/07/28 03:10:05;;;;;;;3.53;1.80;;;;;;;;;;5019668;28;20470;-84
2023/07/28 03:12:32;;;;;;;3.70;2.00;;;;;;;;;;5020348;28;20443;-84
2023/07/28 03:15:00;;;;;;;2.70;1.50;;;;;;;;;;5018583;28;20613;-84
2023/07/28 03:17:27;;;;;;;5.33;2.07;;;;;;;;;;5020079;28;20467;-83
2023/07/28 03:19:54;;;;;;;3.93;1.90;;;;;;;;;;5019019;28;20788;-84
2023/07/28 03:22:21;;;;;;;3.30;1.93;;;;;;;;;;5019623;28;20455;-84
2023/07/28 03:24:49;;;;;;;3.83;2.00;;;;;;;;;;5018789;28;20436;-84
2023/07/28 03:27:18;;;;;;;3.03;1.67;;;;;;;;;;5026914;28;20475;-85
2023/07/28 03:29:45;;;;;;;4.80;2.00;;;;;;;;;;5014927;28;20490;-84
2023/07/28 03:32:12;;;;;;;2.80;1.70;;;;;;;;;;5012982;28;20471;-84
2023/07/28 03:34:40;;;;;;;2.67;1.60;;;;;;;;;;5015281;28;20451;-84
2023/07/28 03:37:07;;;;;;;3.87;1.80;;;;;;;;;;5016070;28;20494;-84
2023/07/28 03:39:34;;;;;;;2.77;1.90;;;;;;;;;;5016081;28;20451;-84
2023/07/28 03:42:01;;;;;;;3.70;2.20;;;;;;;;;;5018240;28;20477;-84
2023/07/28 03:44:30;;;;;;;4.43;1.90;;;;;;;;;;5017932;28;20482;-84
2023/07/28 03:46:57;;;;;;;5.00;2.50;;;;;;;;;;5018759;28;20459;-84
2023/07/28 03:49:25;;;;;;;3.60;2.10;;;;;;;;;;5028606;28;20546;-84
2023/07/28 03:51:52;;;;;;;3.67;1.73;;;;;;;;;;5019710;28;20447;-84
2023/07/28 03:54:19;;;;;;;3.40;2.20;;;;;;;;;;5019938;28;20479;-84
2023/07/28 03:56:46;;;;;;;3.70;2.13;;;;;;;;;;5018396;28;20478;-83
2023/07/28 03:59:14;;;;;;;3.73;2.20;;;;;;;;;;5012265;28;20541;-84
2023/07/28 04:01:42;;;;;;;3.13;2.40;;;;;;;;;;5012131;28;20722;-84
2023/07/28 04:04:10;;;;;;;3.53;2.30;;;;;;;;;;5013747;28;21012;-84
2023/07/28 04:06:43;;;;;;;3.60;3.00;;;;;;;;;;5016656;28;20498;-84
2023/07/28 04:09:11;;;;;;;2.90;2.03;;;;;;;;;;5018861;28;20539;-83
2023/07/28 04:11:38;;;;;;;3.47;2.20;;;;;;;;;;5019348;28;20455;-84
2023/07/28 04:14:06;;;;;;;3.90;1.97;;;;;;;;;;5019639;28;20463;-84
2023/07/28 04:16:33;;;;;;;2.97;2.10;;;;;;;;;;5018720;28;20487;-84
2023/07/28 04:19:02;;;;;;;3.10;1.80;;;;;;;;;;5019050;28;20443;-83
2023/07/28 04:21:29;;;;;;;2.50;1.60;;;;;;;;;;5020939;28;20435;-84
2023/07/28 04:23:56;;;;;;;5.53;1.90;;;;;;;;;;5020222;28;20447;-84
2023/07/28 04:26:25;;;;;;;3.80;2.30;;;;;;;;;;5020112;28;20878;-84
2023/07/28 04:28:53;;;;;;;4.33;2.83;;;;;;;;;;5019331;28;21018;-84
2023/07/28 04:31:20;;;;;;;3.50;2.30;;;;;;;;;;5018848;28;20470;-84
2023/07/28 04:33:47;;;;;;;5.57;2.47;;;;;;;;;;5019731;28;20455;-84
2023/07/28 04:36:16;;;;;;;3.40;2.10;;;;;;;;;;5018587;28;21153;-84
2023/07/28 04:38:43;;;;;;;4.10;2.50;;;;;;;;;;5019572;28;20432;-84
2023/07/28 04:41:10;;;;;;;5.37;2.60;;;;;;;;;;5018713;28;20477;-84
2023/07/28 04:43:37;;;;;;;4.40;2.57;;;;;;;;;;5018926;28;20440;-84
2023/07/28 04:46:05;;;;;;;3.87;1.93;;;;;;;;;;5022136;28;20484;-84
2023/07/28 04:48:32;;;;;;;3.50;2.73;;;;;;;;;;5037984;28;20486;-84
2023/07/28 04:51:00;;;;;;;4.23;2.40;;;;;;;;;;5024250;28;20630;-84
2023/07/28 04:53:28;;;;;;;5.80;2.40;;;;;;;;;;5021086;28;20451;-83
2023/07/28 04:55:56;;;;;;;3.90;2.37;;;;;;;;;;5020005;28;20482;-84
2023/07/28 04:58:23;;;;;;;3.50;2.50;;;;;;;;;;5019512;28;20530;-84
2023/07/28 05:00:50;;;;;;;6.23;2.30;;;;;;;;;;5029398;28;20428;-84
2023/07/28 05:03:18;;;;;;;4.33;2.30;;;;;;;;;;5024715;28;20940;-84
2023/07/28 05:05:45;;;;;;;4.97;2.70;;;;;;;;;;5015303;28;20458;-84
2023/07/28 05:08:13;;;;;;;5.33;2.90;;;;;;;;;;5017731;28;21036;-84
2023/07/28 05:10:42;;;;;;;3.83;2.87;;;;;;;;;;5017256;28;20479;-84
2023/07/28 05:13:10;;;;;;;4.13;2.40;;;;;;;;;;5020515;28;20867;-85
2023/07/28 05:15:37;;;;;;;5.13;2.87;;;;;;;;;;5017264;28;20502;-86
2023/07/28 05:18:04;;;;;;;4.20;3.10;;;;;;;;;;5020288;28;20529;-84
2023/07/28 05:20:31;;;;;;;5.37;2.97;;;;;;;;;;5020718;28;20475;-83
2023/07/28 05:22:59;;;;;;;6.90;2.53;;;;;;;;;;5021328;28;20534;-84
2023/07/28 05:25:27;;;;;;;4.60;2.60;;;;;;;;;;5021543;28;20498;-84
2023/07/28 05:27:56;;;;;;;5.63;3.47;;;;;;;;;;5019081;28;20541;-85
2023/07/28 05:30:23;;;;;;;4.30;2.70;;;;;;;;;;5020431;28;20443;-85
2023/07/28 05:32:50;;;;;;;4.40;2.80;;;;;;;;;;5022034;28;20451;-86
2023/07/28 05:35:17;;;;;;;4.70;3.20;;;;;;;;;;5004080;28;20486;-87
2023/07/28 05:37:45;;;;;;;4.10;2.97;;;;;;;;;;5019481;28;21006;-86
2023/07/28 05:40:14;;;;;;;6.20;3.07;;;;;;;;;;5021115;28;20447;-85
2023/07/28 05:42:41;;;;;;;5.30;2.93;;;;;;;;;;5020191;28;20439;-84
2023/07/28 05:45:12;;;;;;;4.83;3.50;;;;;;;;;;5021219;28;20428;-84
2023/07/28 05:47:39;;;;;;;5.40;4.07;;;;;;;;;;5022324;28;20463;-85
2023/07/28 05:50:08;;;;;;;5.97;3.27;;;;;;;;;;5020080;28;20526;-85
2023/07/28 05:52:35;;;;;;;4.97;3.37;;;;;;;;;;5021342;28;20518;-85
2023/07/28 05:55:03;;;;;;;6.50;3.33;;;;;;;;;;5020792;28;20997;-84
2023/07/28 05:57:30;;;;;;;4.67;3.23;;;;;;;;;;5021310;28;20487;-85
2023/07/28 05:59:58;;;;;;;4.73;3.30;;;;;;;;;;5019046;28;20467;-85
2023/07/28 06:02:27;;;;;;;5.17;2.93;;;;;;;;;;5022648;28;20875;-85
2023/07/28 06:04:54;;;;;;;4.67;2.73;;;;;;;;;;5020806;28;20895;-85
2023/07/28 06:07:22;;;;;;;4.40;2.80;;;;;;;;;;5021350;28;20463;-85
2023/07/28 06:09:49;;;;;;;4.83;2.60;;;;;;;;;;5018895;28;20961;-84
2023/07/28 06:12:17;;;;;;;3.80;3.13;;;;;;;;;;5018732;28;20447;-85
2023/07/28 06:14:44;;;;;;;5.53;3.27;;;;;;;;;;5017654;28;20522;-84
2023/07/28 06:17:11;;;;;;;6.23;3.40;;;;;;;;;;5017929;28;20540;-84
2023/07/28 06:19:40;;;;;;;5.20;3.43;;;;;;;;;;5015968;28;20451;-84
2023/07/28 06:22:07;;;;;;;5.27;2.90;;;;;;;;;;5015823;28;20809;-84
2023/07/28 06:24:35;;;;;;;4.10;2.73;;;;;;;;;;5015510;28;20455;-84
2023/07/28 06:27:07;;;;;;;4.00;2.67;;;;;;;;;;5014795;28;20467;-84
2023/07/28 06:29:34;;;;;;;4.10;2.93;;;;;;;;;;5014492;28;20874;-84
2023/07/28 06:32:02;;;;;;;3.80;2.40;;;;;;;;;;5015821;28;20455;-84
2023/07/28 06:34:29;;;;;;;14.33;11.27;;;;;;;;;;5015622;28;20483;-84
2023/07/28 06:36:58;;;;;;;9.60;7.53;;;;;;;;;;5030617;28;20471;-84
2023/07/28 06:39:25;;;;;;;6.10;4.93;;;;;;;;;;5019481;28;20450;-84
2023/07/28 06:41:52;;;;;;;4.60;3.50;;;;;;;;;;5013219;28;20531;-84
2023/07/28 06:44:20;;;;;;;6.60;3.97;;;;;;;;;;5012535;28;20483;-84
2023/07/28 06:46:47;;;;;;;4.43;3.10;;;;;;;;;;5014645;28;20578;-84
2023/07/28 06:49:15;;;;;;;8.00;3.93;;;;;;;;;;5014972;28;20520;-84
2023/07/28 06:51:42;;;;;;;6.73;3.20;;;;;;;;;;5014266;28;20459;-83
2023/07/28 06:54:12;;;;;;;7.70;3.13;;;;;;;;;;5015114;28;20455;-84
2023/07/28 06:56:39;;;;;;;5.90;2.87;;;;;;;;;;5014671;28;20489;-84
2023/07/28 06:59:07;;;;;;;4.53;2.53;;;;;;;;;;5014788;28;20946;-84
2023/07/28 07:01:34;;;;;;;5.77;2.97;;;;;;;;;;5014948;28;20451;-84
2023/07/28 07:04:02;;;;;;;3.70;2.87;;;;;;;;;;5015408;28;20466;-84
2023/07/28 07:06:29;;;;;;;5.90;2.60;;;;;;;;;;5016444;28;20849;-85
2023/07/28 07:08:56;;;;;;;4.30;2.60;;;;;;;;;;5016487;28;20831;-85
2023/07/28 07:11:25;;;;;;;5.80;3.40;;;;;;;;;;5016345;28;20443;-85
2023/07/28 07:13:52;;;;;;;5.73;3.27;;;;;;;;;;5016610;28;20447;-85
2023/07/28 07:16:19;;;;;;;3.80;2.63;;;;;;;;;;5016247;28;20491;-85
2023/07/28 07:18:47;;;;;;;3.97;3.10;;;;;;;;;;5015851;28;20542;-84
2023/07/28 07:21:14;;;;;;;7.13;2.40;;;;;;;;;;5013631;28;20462;-84
2023/07/28 07:23:41;;;;;;;3.80;2.73;;;;;;;;;;5013966;28;20467;-84
2023/07/28 07:26:09;;;;;;;4.33;2.87;;;;;;;;;;5013465;28;20449;-84
2023/07/28 07:28:38;;;;;;;5.00;2.20;;;;;;;;;;5013399;28;20744;-84
2023/07/28 07:31:05;;;;;;;3.87;2.10;;;;;;;;;;5012431;28;20497;-84
2023/07/28 07:33:32;;;;;;;4.90;2.00;;;;;;;;;;5010541;28;20450;-84
2023/07/28 07:36:00;;;;;;;5.40;2.90;;;;;;;;;;5013381;28;20467;-84
2023/07/28 07:38:27;;;;;;;8.00;3.20;;;;;;;;;;5014025;28;20585;-84
2023/07/28 07:40:54;;;;;;;4.40;2.73;;;;;;;;;;5013397;28;20471;-84
2023/07/28 07:43:21;;;;;;;4.40;2.50;;;;;;;;;;5012239;28;20467;-84
2023/07/28 07:45:53;;;;;;;2.77;1.97;;;;;;;;;;5011269;28;20446;-84
2023/07/28 07:48:21;;;;;;;3.70;2.07;;;;;;;;;;5012323;28;20839;-84
2023/07/28 07:50:48;;;;;;;4.73;2.10;;;;;;;;;;5010137;28;20907;-84
2023/07/28 07:53:15;;;;;;;3.07;1.90;;;;;;;;;;5010895;28;20455;-83
2023/07/28 07:55:43;;;;;;;2.93;2.20;;;;;;;;;;5008299;28;20979;-84
2023/07/28 07:58:10;;;;;;;3.57;2.40;;;;;;;;;;5012018;28;20486;-84
2023/07/28 08:00:38;;;;;;;3.90;2.30;;;;;;;;;;5005789;28;20450;-84
2023/07/28 08:03:07;;;;;;;5.40;2.57;;;;;;;;;;5010053;28;20474;-84
2023/07/28 08:05:34;;;;;;;4.30;3.13;;;;;;;;;;5010983;28;20845;-84
2023/07/28 08:08:01;;;;;;;4.43;2.47;;;;;;;;;;5010159;28;20463;-84
2023/07/28 08:10:29;;;;;;;3.80;2.27;;;;;;;;;;5011372;28;20483;-84
2023/07/28 08:12:57;;;;;;;3.33;2.20;;;;;;;;;;5016829;28;20435;-83
2023/07/28 08:15:24;;;;;;;3.30;2.50;;;;;;;;;;5014618;28;20475;-84
2023/07/28 08:20:21;;;;;;;3.63;2.30;;;;;;;;;;5025541;28;20466;-55
2023/07/28 08:22:49;;;;;;;3.63;2.40;;;;;;;;;;5028030;28;20465;-54
2023/07/28 08:25:16;;;;;;;5.70;2.20;;;;;;;;;;5012068;28;20541;-55
2023/07/28 08:27:43;;;;;;;4.80;2.73;;;;;;;;;;5011711;28;20532;-55
2023/07/28 08:30:11;;;;;;;4.47;2.57;;;;;;;;;;5011572;28;20526;-56
2023/07/28 08:32:38;;;;;;;5.20;2.10;;;;;;;;;;5011796;28;20522;-55
2023/07/28 08:35:06;;;;;;;3.37;2.30;;;;;;;;;;5004248;28;20881;-56
2023/07/28 08:37:34;;;;;;;6.30;2.80;;;;;;;;;;5012268;28;20558;-54
2023/07/28 08:40:01;;;;;;;5.07;2.40;;;;;;;;;;5012576;28;20525;-54
2023/07/28 08:42:30;;;;;;;5.83;3.27;;;;;;;;;;5012396;28;20439;-54
2023/07/28 08:44:58;;;;;;;5.57;3.10;;;;;;;;;;5010798;28;20557;-55
2023/07/28 08:47:26;;;;;;;3.57;2.20;;;;;;;;;;4999692;28;20471;-55
2023/07/28 08:49:53;;;;;;;4.10;3.10;;;;;;;;;;5010050;28;20474;-54
2023/07/28 08:52:20;;;;;;;4.27;2.10;;;;;;;;;;5011333;28;20470;-55
2023/07/28 08:54:49;;;;;;;3.07;2.00;;;;;;;;;;5004835;28;20467;-56
2023/07/28 08:57:16;;;;;;;3.60;2.60;;;;;;;;;;5000238;28;21071;-54
2023/07/28 08:59:47;;;;;;;3.40;2.33;;;;;;;;;;5004391;28;20842;-55
2023/07/28 09:02:15;;;;;;;3.23;2.40;;;;;;;;;;5006383;28;20980;-56
2023/07/28 09:04:43;;;;;;;2.83;2.10;;;;;;;;;;5011146;28;20467;-54
2023/07/28 09:07:10;;;;;;;3.00;2.10;;;;;;;;;;5004124;28;20931;-56
2023/07/28 09:09:38;;;;;;;4.33;2.30;;;;;;;;;;5006071;28;20915;-54
2023/07/28 09:12:07;;;;;;;4.40;3.50;;;;;;;;;;5013278;28;20474;-56
2023/07/28 09:14:36;;;;;;;3.47;2.60;;;;;;;;;;5010772;28;20844;-55
2023/07/28 09:17:07;;;;;;;3.40;2.60;;;;;;;;;;5004992;28;20482;-56
2023/07/28 09:19:35;;;;;;;5.57;2.43;;;;;;;;;;5010581;28;20455;-55
2023/07/28 09:22:04;;;;;;;4.40;2.60;;;;;;;;;;5010798;28;20887;-55
2023/07/28 09:24:33;;;;;;;4.10;2.47;;;;;;;;;;5010444;28;20877;-56
2023/07/28 09:27:00;;;;;;;4.43;2.40;;;;;;;;;;5008724;28;21007;-54
2023/07/28 09:29:29;;;;;;;3.93;2.57;;;;;;;;;;4995350;28;20601;-56
2023/07/28 09:32:04;;;;;;;3.10;2.27;;;;;;;;;;5007427;28;20966;-54
2023/07/28 09:34:32;;;;;;;2.70;1.77;;;;;;;;;;5009568;28;20458;-54
2023/07/28 09:36:59;;;;;;;4.70;2.17;;;;;;;;;;5007804;28;20478;-55
2023/07/28 09:39:27;;;;;;;2.93;1.93;;;;;;;;;;5009852;28;20475;-54
2023/07/28 09:41:58;;;;;;;3.00;2.00;;;;;;;;;;5009913;28;20455;-56
2023/07/28 09:44:25;;;;;;;4.37;1.93;;;;;;;;;;5005848;28;20598;-55
2023/07/28 09:46:55;;;;;;;3.57;2.27;;;;;;;;;;5006867;28;20471;-54
2023/07/28 09:49:23;;;;;;;3.67;2.07;;;;;;;;;;5004435;28;20467;-55
2023/07/28 09:51:54;;;;;;;3.40;2.00;;;;;;;;;;5010968;28;20479;-54
2023/07/28 09:54:25;;;;;;;3.43;2.17;;;;;;;;;;5008858;28;20514;-55
2023/07/28 09:56:53;;;;;;;5.40;2.27;;;;;;;;;;5007769;28;20443;-55
2023/07/28 09:59:21;;;;;;;3.30;2.50;;;;;;;;;;4998864;28;20470;-56
2023/07/28 10:01:49;;;;;;;3.17;2.37;;;;;;;;;;5008479;28;20525;-55
2023/07/28 10:04:18;;;;;;;3.30;1.90;;;;;;;;;;5004767;28;20546;-56
2023/07/28 10:06:46;;;;;;;3.07;1.80;;;;;;;;;;5010662;28;20475;-55
2023/07/28 10:09:16;;;;;;;3.97;2.80;;;;;;;;;;5010060;28;20482;-54
2023/07/28 10:11:43;;;;;;;3.10;2.33;;;;;;;;;;5009777;28;20478;-56
2023/07/28 10:14:11;;;;;;;2.37;1.50;;;;;;;;;;5009616;28;20502;-56
2023/07/28 10:16:41;;;;;;;3.63;2.27;;;;;;;;;;5005471;28;20959;-54
2023/07/28 10:19:09;;;;;;;3.30;2.10;;;;;;;;;;5010768;28;21020;-56
2023/07/28 10:21:43;;;;;;;3.67;2.30;;;;;;;;;;5011094;28;20887;-56
2023/07/28 10:24:10;;;;;;;2.97;2.03;;;;;;;;;;5011549;28;20553;-54
2023/07/28 10:26:37;;;;;;;4.00;2.63;;;;;;;;;;5011152;28;20958;-56
2023/07/28 10:29:11;;;;;;;3.57;2.20;;;;;;;;;;5011228;28;20447;-56
2023/07/28 10:31:39;;;;;;;3.67;2.17;;;;;;;;;;5010802;28;20449;-56
2023/07/28 10:34:06;;;;;;;3.20;1.90;;;;;;;;;;5010444;28;20447;-56
2023/07/28 10:36:36;;;;;;;3.43;2.30;;;;;;;;;;5008639;28;20443;-56
2023/07/28 10:39:16;;;;;;;3.77;2.00;;;;;;;;;;5007075;28;20511;-54
2023/07/28 10:42:01;;;;;;;2.80;1.87;;;;;;;;;;5007687;28;20490;-55
2023/07/28 10:44:28;;;;;;;2.70;1.90;;;;;;;;;;5008905;28;20463;-56
2023/07/28 10:46:56;;;;;;;3.23;2.37;;;;;;;;;;5009579;28;21027;-56
2023/07/28 10:49:24;;;;;;;2.87;2.00;;;;;;;;;;5006512;28;20451;-56
2023/07/28 10:51:51;;;;;;;3.80;2.50;;;;;;;;;;5007832;28;20447;-55
2023/07/28 10:54:20;;;;;;;4.30;2.13;;;;;;;;;;4999101;28;20569;-56
2023/07/28 10:56:48;;;;;;;2.67;1.77;;;;;;;;;;4998657;28;20827;-56
2023/07/28 10:59:16;;;;;;;3.97;2.13;;;;;;;;;;5007262;28;20566;-56
2023/07/28 11:01:43;;;;;;;3.13;2.20;;;;;;;;;;5008890;28;20450;-56
2023/07/28 11:04:12;;;;;;;3.37;1.70;;;;;;;;;;5009233;28;20560;-56
2023/07/28 11:06:40;;;;;;;3.63;2.23;;;;;;;;;;5004330;28;21062;-56
2023/07/28 11:09:08;;;;;;;3.50;1.97;;;;;;;;;;4990611;28;20443;-55
2023/07/28 11:11:37;;;;;;;4.00;2.60;;;;;;;;;;4991045;28;20458;-56
2023/07/28 11:14:06;;;;;;;3.47;2.07;;;;;;;;;;4991916;28;20578;-55
2023/07/28 11:16:35;;;;;;;3.10;2.10;;;;;;;;;;4992079;28;20533;-55
2023/07/28 11:19:03;;;;;;;4.47;2.77;;;;;;;;;;5001598;28;20494;-55
2023/07/28 11:21:30;;;;;;;3.90;2.37;;;;;;;;;;5007785;28;20530;-55
2023/07/28 11:23:58;;;;;;;3.00;2.07;;;;;;;;;;5010273;28;20443;-56
2023/07/28 11:26:25;;;;;;;3.93;2.17;;;;;;;;;;5010182;28;20885;-54
2023/07/28 11:28:54;;;;;;;3.10;2.10;;;;;;;;;;5002516;28;20472;-55
2023/07/28 11:31:26;;;;;;;3.50;2.33;;;;;;;;;;5009695;28;21006;-56
2023/07/28 11:33:54;;;;;;;3.20;2.10;;;;;;;;;;5010690;28;20535;-56
2023/07/28 11:36:24;;;;;;;5.37;2.53;;;;;;;;;;5007906;28;20866;-55
2023/07/28 11:38:52;;;;;;;3.50;2.40;;;;;;;;;;5009795;28;20892;-54
2023/07/28 11:41:20;;;;;;;3.17;1.93;;;;;;;;;;5009426;28;20512;-56
2023/07/28 11:43:48;;;;;;;3.37;2.20;;;;;;;;;;5009644;28;20475;-53
2023/07/28 11:46:30;;;;;;;3.00;2.10;;;;;;;;;;5009727;28;20439;-56
2023/07/28 11:49:09;;;;;;;4.67;2.63;;;;;;;;;;5000406;28;20495;-54
2023/07/28 11:51:39;;;;;;;5.07;2.40;;;;;;;;;;5004164;28;20895;-55
2023/07/28 11:54:06;;;;;;;3.67;2.20;;;;;;;;;;5009391;28;20444;-56
2023/07/28 11:56:34;;;;;;;2.80;2.00;;;;;;;;;;5010496;28;20471;-56
2023/07/28 11:59:02;;;;;;;3.70;2.40;;;;;;;;;;5010294;28;20486;-57
2023/07/28 12:01:30;;;;;;;2.90;2.00;;;;;;;;;;5002365;28;20452;-56
2023/07/28 12:03:58;;;;;;;4.23;2.13;;;;;;;;;;5005619;28;21257;-56
2023/07/28 12:06:27;;;;;;;3.17;2.50;;;;;;;;;;5008940;28;21019;-54
2023/07/28 12:08:54;;;;;;;3.23;2.20;;;;;;;;;;5008482;28;20531;-56
2023/07/28 12:11:23;;;;;;;3.80;2.47;;;;;;;;;;5013950;28;20517;-56
2023/07/28 12:13:51;;;;;;;5.27;2.87;;;;;;;;;;5013641;28;20504;-55
2023/07/28 12:16:39;;;;;;;3.40;2.60;;;;;;;;;;5013747;28;20442;-54
2023/07/28 12:19:06;;;;;;;4.80;3.03;;;;;;;;;;5013357;28;20486;-54
2023/07/28 12:21:35;;;;;;;3.17;2.10;;;;;;;;;;5013599;28;20999;-54
2023/07/28 12:24:02;;;;;;;5.57;2.83;;;;;;;;;;5013989;28;20530;-56
2023/07/28 12:26:30;;;;;;;5.00;3.00;;;;;;;;;;5014060;28;20447;-54
2023/07/28 12:28:57;;;;;;;3.20;2.40;;;;;;;;;;5012902;28;20836;-56
2023/07/28 12:31:24;;;;;;;3.43;2.17;;;;;;;;;;5013493;28;20487;-56
2023/07/28 12:33:51;;;;;;;4.13;2.30;;;;;;;;;;5013860;28;20477;-54
2023/07/28 12:36:18;;;;;;;3.80;2.80;;;;;;;;;;5013634;28;20977;-56
2023/07/28 12:38:47;;;;;;;4.63;2.83;;;;;;;;;;5013216;28;20579;-54
2023/07/28 12:41:14;;;;;;;5.80;2.93;;;;;;;;;;5013368;28;20530;-54
2023/07/28 12:43:41;;;;;;;4.80;2.70;;;;;;;;;;5013585;28;20486;-56
2023/07/28 12:46:09;;;;;;;3.97;2.97;;;;;;;;;;5013065;28;20554;-55
2023/07/28 12:48:36;;;;;;;3.43;2.50;;;;;;;;;;5012793;28;20451;-54
2023/07/28 12:51:03;;;;;;;4.10;2.50;;;;;;;;;;5013294;28;20526;-55
2023/07/28 12:53:30;;;;;;;3.40;2.60;;;;;;;;;;5012964;28;21012;-55
2023/07/28 12:55:59;;;;;;;3.60;2.60;;;;;;;;;;5012986;28;20545;-55
2023/07/28 12:58:26;;;;;;;3.93;2.57;;;;;;;;;;5008503;28;20562;-56
2023/07/28 13:00:54;;;;;;;3.10;2.50;;;;;;;;;;5010001;28;20892;-55
2023/07/28 13:03:21;;;;;;;3.83;3.13;;;;;;;;;;5005028;28;20971;-54
2023/07/28 13:05:48;;;;;;;4.77;2.73;;;;;;;;;;5012555;28;20557;-55
2023/07/28 13:08:16;;;;;;;3.13;2.60;;;;;;;;;;5006115;28;20471;-56
2023/07/28 13:10:43;;;;;;;3.30;2.50;;;;;;;;;;5005001;28;20471;-56
2023/07/28 13:13:11;;;;;;;4.60;3.27;;;;;;;;;;5010218;28;20505;-56
2023/07/28 13:15:39;;;;;;;4.43;2.87;;;;;;;;;;5005048;28;20547;-56
2023/07/28 13:18:06;;;;;;;4.80;3.07;;;;;;;;;;5013020;28;20557;-56
2023/07/28 13:20:33;;;;;;;4.10;3.07;;;;;;;;;;5006915;28;20541;-56
2023/07/28 13:23:00;;;;;;;4.00;2.80;;;;;;;;;;5012436;28;20580;-56
2023/07/28 13:25:28;;;;;;;4.13;3.10;;;;;;;;;;5012085;28;20495;-54
2023/07/28 13:27:55;;;;;;;4.23;2.87;;;;;;;;;;5009611;28;21027;-55
2023/07/28 13:30:23;;;;;;;5.13;2.40;;;;;;;;;;5011735;28;20474;-56
2023/07/28 13:32:51;;;;;;;3.73;3.17;;;;;;;;;;5007547;28;20472;-56
2023/07/28 13:35:18;;;;;;;3.83;3.10;;;;;;;;;;5009604;28;21043;-56
2023/07/28 13:37:45;;;;;;;3.57;3.00;;;;;;;;;;5012504;28;20443;-56
2023/07/28 13:40:12;;;;;;;5.37;2.97;;;;;;;;;;5007566;28;20450;-56
2023/07/28 13:42:40;;;;;;;3.60;2.97;;;;;;;;;;5004570;28;20540;-56
2023/07/28 13:45:07;;;;;;;3.20;2.50;;;;;;;;;;5012192;28;20894;-56
2023/07/28 13:47:36;;;;;;;4.07;3.17;;;;;;;;;;5011719;28;20471;-55
2023/07/28 13:50:03;;;;;;;3.50;3.00;;;;;;;;;;5011644;28;20522;-55
2023/07/28 13:52:30;;;;;;;3.53;2.73;;;;;;;;;;5012252;28;20447;-56
2023/07/28 13:54:58;;;;;;;3.63;2.60;;;;;;;;;;5011376;28;20470;-56
2023/07/28 13:57:25;;;;;;;3.63;2.60;;;;;;;;;;5011949;28;21018;-56
2023/07/28 13:59:53;;;;;;;3.50;2.70;;;;;;;;;;5011604;28;20588;-56
2023/07/28 14:02:20;;;;;;;3.77;2.60;;;;;;;;;;5012317;28;20439;-54
2023/07/28 14:04:49;;;;;;;3.70;2.80;;;;;;;;;;5038956;23;20510;-88
2023/07/28 14:07:16;;;;;;;3.63;2.70;;;;;;;;;;5017453;28;20818;-88
2023/07/28 14:09:43;;;;;;;5.37;2.73;;;;;;;;;;5016874;28;20467;-88
2023/07/28 14:12:10;;;;;;;3.87;3.17;;;;;;;;;;5017637;28;20455;-88
2023/07/28 14:14:38;;;;;;;3.40;2.63;;;;;;;;;;5017471;28;20523;-88
2023/07/28 14:17:05;;;;;;;4.90;2.80;;;;;;;;;;5018101;28;20526;-88
2023/07/28 14:19:32;;;;;;;4.40;3.00;;;;;;;;;;5041220;23;20540;-57
2023/07/28 14:22:01;;;;;;;3.47;2.80;;;;;;;;;;5031401;28;20533;-58
2023/07/28 14:24:29;;;;;;;3.70;2.70;;;;;;;;;;5031266;28;20438;-58
2023/07/28 14:26:56;;;;;;;3.90;3.50;;;;;;;;;;5031341;28;20450;-58
2023/07/28 14:29:23;;;;;;;3.90;2.87;;;;;;;;;;5030065;28;20913;-58
2023/07/28 14:31:50;;;;;;;5.87;3.80;;;;;;;;;;5031174;28;20526;-58
2023/07/28 14:34:18;;;;;;;4.83;4.00;;;;;;;;;;5030906;28;20474;-57
2023/07/28 14:36:45;;;;;;;4.80;3.20;;;;;;;;;;5031060;28;21044;-58
2023/07/28 14:39:14;;;;;;;4.10;2.97;;;;;;;;;;5030407;28;20881;-57
2023/07/28 14:41:42;;;;;;;5.03;3.60;;;;;;;;;;5029901;28;20917;-58
2023/07/28 14:44:09;;;;;;;4.30;3.07;;;;;;;;;;5023885;28;20475;-57
2023/07/28 14:46:36;;;;;;;4.37;2.80;;;;;;;;;;5029836;28;20454;-58
2023/07/28 14:49:03;;;;;;;3.53;2.70;;;;;;;;;;5030218;28;20462;-57